sensor_id;sensor_type;location;lat;lon;timestamp;P1;durP1;ratioP1;P2;durP2;ratioP2
18286;SDS011;9269;50.838;12.094;2023-03-13T00:00:00;12.97;;;5.70;;
18286;SDS011;9269;50.838;12.094;2023-03-13T00:02:30;14.93;;;5.20;;
18286;SDS011;9269;50.838;12.094;2023-03-13T00:04:58;13.97;;;5.63;;
18286;SDS011;9269;50.838;12.094;2023-03-13T00:07:27;12.03;;;5.97;;
18286;SDS011;9269;50.838;12.094;2023-03-13T00:09:55;14.67;;;5.70;;
18286;SDS011;9269;50.838;12.094;2023-03-13T00:12:24;14.43;;;7.13;;
18286;SDS011;9269;50.838;12.094;2023-03-13T00:14:52;13.70;;;6.57;;
18286;SDS011;9269;50.838;12.094;2023-03-13T00:17:20;18.77;;;7.43;;
18286;SDS011;9269;50.838;12.094;2023-03-13T00:19:50;14.83;;;6.67;;
18286;SDS011;9269;50.838;12.094;2023-03-13T00:22:18;11.30;;;6.07;;
18286;SDS011;9269;50.838;12.094;2023-03-13T00:24:47;13.30;;;5.83;;
18286;SDS011;9269;50.838;12.094;2023-03-13T00:27:15;12.90;;;6.10;;
18286;SDS011;9269;50.838;12.094;2023-03-13T00:29:43;9.93;;;5.83;;
18286;SDS011;9269;50.838;12.094;2023-03-13T00:32:11;15.00;;;6.20;;
18286;SDS011;9269;50.838;12.094;2023-03-13T00:34:40;15.77;;;6.43;;
18286;SDS011;9269;50.838;12.094;2023-03-13T00:37:09;15.00;;;6.20;;
18286;SDS011;9269;50.838;12.094;2023-03-13T00:39:38;15.00;;;6.07;;
18286;SDS011;9269;50.838;12.094;2023-03-13T00:42:06;14.00;;;6.53;;
18286;SDS011;9269;50.838;12.094;2023-03-13T00:44:34;17.37;;;6.60;;
18286;SDS011;9269;50.838;12.094;2023-03-13T00:47:03;14.90;;;6.53;;
18286;SDS011;9269;50.838;12.094;2023-03-13T00:49:33;13.47;;;6.63;;
18286;SDS011;9269;50.838;12.094;2023-03-13T00:52:01;13.33;;;6.47;;
18286;SDS011;9269;50.838;12.094;2023-03-13T00:54:31;17.80;;;6.43;;
18286;SDS011;9269;50.838;12.094;2023-03-13T00:56:59;20.23;;;6.60;;
18286;SDS011;9269;50.838;12.094;2023-03-13T00:59:27;15.00;;;6.20;;
18286;SDS011;9269;50.838;12.094;2023-03-13T01:01:57;18.40;;;6.83;;
18286;SDS011;9269;50.838;12.094;2023-03-13T01:04:25;16.63;;;7.03;;
18286;SDS011;9269;50.838;12.094;2023-03-13T01:06:54;14.30;;;6.60;;
18286;SDS011;9269;50.838;12.094;2023-03-13T01:09:22;12.37;;;5.73;;
18286;SDS011;9269;50.838;12.094;2023-03-13T01:11:52;15.00;;;6.17;;
18286;SDS011;9269;50.838;12.094;2023-03-13T01:14:20;15.60;;;6.47;;
18286;SDS011;9269;50.838;12.094;2023-03-13T01:16:48;15.87;;;6.90;;
18286;SDS011;9269;50.838;12.094;2023-03-13T01:19:17;12.07;;;6.60;;
18286;SDS011;9269;50.838;12.094;2023-03-13T01:21:45;12.33;;;6.77;;
18286;SDS011;9269;50.838;12.094;2023-03-13T01:24:14;12.70;;;6.50;;
18286;SDS011;9269;50.838;12.094;2023-03-13T01:26:42;18.03;;;6.53;;
18286;SDS011;9269;50.838;12.094;2023-03-13T01:29:12;15.57;;;6.47;;
18286;SDS011;9269;50.838;12.094;2023-03-13T01:31:42;15.40;;;6.30;;
18286;SDS011;9269;50.838;12.094;2023-03-13T01:34:10;12.17;;;5.63;;
18286;SDS011;9269;50.838;12.094;2023-03-13T01:36:39;9.67;;;4.93;;
18286;SDS011;9269;50.838;12.094;2023-03-13T01:39:07;14.37;;;4.90;;
18286;SDS011;9269;50.838;12.094;2023-03-13T01:41:36;11.73;;;5.13;;
18286;SDS011;9269;50.838;12.094;2023-03-13T01:44:05;11.17;;;4.70;;
18286;SDS011;9269;50.838;12.094;2023-03-13T01:46:42;13.40;;;4.77;;
18286;SDS011;9269;50.838;12.094;2023-03-13T01:49:11;9.73;;;4.27;;
18286;SDS011;9269;50.838;12.094;2023-03-13T01:51:45;10.07;;;3.87;;
18286;SDS011;9269;50.838;12.094;2023-03-13T01:54:18;11.73;;;4.23;;
18286;SDS011;9269;50.838;12.094;2023-03-13T01:56:50;14.33;;;3.97;;
18286;SDS011;9269;50.838;12.094;2023-03-13T01:59:24;14.40;;;5.00;;
18286;SDS011;9269;50.838;12.094;2023-03-13T02:01:58;13.47;;;4.40;;
18286;SDS011;9269;50.838;12.094;2023-03-13T02:04:29;13.07;;;4.67;;
18286;SDS011;9269;50.838;12.094;2023-03-13T02:07:02;10.63;;;4.10;;
18286;SDS011;9269;50.838;12.094;2023-03-13T02:09:37;10.00;;;4.03;;
18286;SDS011;9269;50.838;12.094;2023-03-13T02:12:08;12.63;;;4.27;;
18286;SDS011;9269;50.838;12.094;2023-03-13T02:14:40;12.33;;;3.83;;
18286;SDS011;9269;50.838;12.094;2023-03-13T02:17:13;10.77;;;3.93;;
18286;SDS011;9269;50.838;12.094;2023-03-13T02:19:43;12.50;;;4.87;;
18286;SDS011;9269;50.838;12.094;2023-03-13T02:22:15;11.53;;;3.53;;
18286;SDS011;9269;50.838;12.094;2023-03-13T02:24:51;14.60;;;4.03;;
18286;SDS011;9269;50.838;12.094;2023-03-13T02:27:27;10.70;;;3.83;;
18286;SDS011;9269;50.838;12.094;2023-03-13T02:29:55;12.73;;;3.93;;
18286;SDS011;9269;50.838;12.094;2023-03-13T02:32:24;12.40;;;3.90;;
18286;SDS011;9269;50.838;12.094;2023-03-13T02:34:55;9.17;;;3.37;;
18286;SDS011;9269;50.838;12.094;2023-03-13T02:37:26;10.23;;;3.80;;
18286;SDS011;9269;50.838;12.094;2023-03-13T02:39:57;13.33;;;4.00;;
18286;SDS011;9269;50.838;12.094;2023-03-13T02:42:32;10.57;;;3.80;;
18286;SDS011;9269;50.838;12.094;2023-03-13T02:45:00;11.53;;;3.80;;
18286;SDS011;9269;50.838;12.094;2023-03-13T02:47:28;11.10;;;3.70;;
18286;SDS011;9269;50.838;12.094;2023-03-13T02:49:57;10.10;;;3.47;;
18286;SDS011;9269;50.838;12.094;2023-03-13T02:52:26;14.07;;;4.40;;
18286;SDS011;9269;50.838;12.094;2023-03-13T02:55:00;10.80;;;3.23;;
18286;SDS011;9269;50.838;12.094;2023-03-13T02:57:34;11.60;;;4.07;;
18286;SDS011;9269;50.838;12.094;2023-03-13T03:00:02;13.87;;;3.63;;
18286;SDS011;9269;50.838;12.094;2023-03-13T03:02:33;10.67;;;3.93;;
18286;SDS011;9269;50.838;12.094;2023-03-13T03:05:01;11.90;;;3.57;;
18286;SDS011;9269;50.838;12.094;2023-03-13T03:07:30;12.30;;;3.97;;
18286;SDS011;9269;50.838;12.094;2023-03-13T03:09:58;8.13;;;3.60;;
18286;SDS011;9269;50.838;12.094;2023-03-13T03:12:27;13.20;;;4.47;;
18286;SDS011;9269;50.838;12.094;2023-03-13T03:14:56;13.53;;;3.60;;
18286;SDS011;9269;50.838;12.094;2023-03-13T03:17:25;10.57;;;3.70;;
18286;SDS011;9269;50.838;12.094;2023-03-13T03:19:53;11.77;;;3.80;;
18286;SDS011;9269;50.838;12.094;2023-03-13T03:22:21;11.97;;;3.73;;
18286;SDS011;9269;50.838;12.094;2023-03-13T03:24:50;9.73;;;3.90;;
18286;SDS011;9269;50.838;12.094;2023-03-13T03:27:18;9.60;;;3.83;;
18286;SDS011;9269;50.838;12.094;2023-03-13T03:29:47;12.03;;;3.40;;
18286;SDS011;9269;50.838;12.094;2023-03-13T03:32:16;11.73;;;3.80;;
18286;SDS011;9269;50.838;12.094;2023-03-13T03:34:45;13.37;;;4.03;;
18286;SDS011;9269;50.838;12.094;2023-03-13T03:37:13;15.43;;;3.73;;
18286;SDS011;9269;50.838;12.094;2023-03-13T03:39:41;12.03;;;3.80;;
18286;SDS011;9269;50.838;12.094;2023-03-13T03:42:10;14.30;;;4.23;;
18286;SDS011;9269;50.838;12.094;2023-03-13T03:44:38;13.10;;;3.57;;
18286;SDS011;9269;50.838;12.094;2023-03-13T03:47:08;12.57;;;3.63;;
18286;SDS011;9269;50.838;12.094;2023-03-13T03:49:37;6.90;;;3.17;;
18286;SDS011;9269;50.838;12.094;2023-03-13T03:52:06;11.03;;;3.73;;
18286;SDS011;9269;50.838;12.094;2023-03-13T03:54:34;13.13;;;3.63;;
18286;SDS011;9269;50.838;12.094;2023-03-13T03:57:03;9.20;;;3.50;;
18286;SDS011;9269;50.838;12.094;2023-03-13T03:59:31;13.07;;;3.53;;
18286;SDS011;9269;50.838;12.094;2023-03-13T04:01:59;12.03;;;3.30;;
18286;SDS011;9269;50.838;12.094;2023-03-13T04:04:29;11.73;;;4.20;;
18286;SDS011;9269;50.838;12.094;2023-03-13T04:06:58;13.63;;;3.20;;
18286;SDS011;9269;50.838;12.094;2023-03-13T04:09:27;9.70;;;3.70;;
18286;SDS011;9269;50.838;12.094;2023-03-13T04:11:58;12.37;;;3.43;;
18286;SDS011;9269;50.838;12.094;2023-03-13T04:14:27;10.77;;;3.23;;
18286;SDS011;9269;50.838;12.094;2023-03-13T04:16:55;11.83;;;3.87;;
18286;SDS011;9269;50.838;12.094;2023-03-13T04:19:23;12.17;;;3.37;;
18286;SDS011;9269;50.838;12.094;2023-03-13T04:21:52;9.17;;;3.03;;
18286;SDS011;9269;50.838;12.094;2023-03-13T04:24:21;10.30;;;3.57;;
18286;SDS011;9269;50.838;12.094;2023-03-13T04:26:49;11.37;;;3.07;;
18286;SDS011;9269;50.838;12.094;2023-03-13T04:29:18;12.47;;;3.27;;
18286;SDS011;9269;50.838;12.094;2023-03-13T04:31:46;11.10;;;3.43;;
18286;SDS011;9269;50.838;12.094;2023-03-13T04:34:14;12.37;;;3.30;;
18286;SDS011;9269;50.838;12.094;2023-03-13T04:36:43;12.23;;;3.43;;
18286;SDS011;9269;50.838;12.094;2023-03-13T04:39:11;8.50;;;3.13;;
18286;SDS011;9269;50.838;12.094;2023-03-13T04:41:41;11.47;;;3.27;;
18286;SDS011;9269;50.838;12.094;2023-03-13T04:44:09;6.93;;;3.23;;
18286;SDS011;9269;50.838;12.094;2023-03-13T04:46:37;8.93;;;3.60;;
18286;SDS011;9269;50.838;12.094;2023-03-13T04:49:06;12.03;;;3.30;;
18286;SDS011;9269;50.838;12.094;2023-03-13T04:51:34;11.57;;;3.37;;
18286;SDS011;9269;50.838;12.094;2023-03-13T04:54:03;8.97;;;2.90;;
18286;SDS011;9269;50.838;12.094;2023-03-13T04:56:31;9.53;;;2.90;;
18286;SDS011;9269;50.838;12.094;2023-03-13T04:59:11;9.90;;;3.80;;
18286;SDS011;9269;50.838;12.094;2023-03-13T05:01:40;10.33;;;2.87;;
18286;SDS011;9269;50.838;12.094;2023-03-13T05:04:10;8.97;;;2.97;;
18286;SDS011;9269;50.838;12.094;2023-03-13T05:06:38;9.83;;;3.10;;
18286;SDS011;9269;50.838;12.094;2023-03-13T05:09:07;9.43;;;3.07;;
18286;SDS011;9269;50.838;12.094;2023-03-13T05:11:35;11.77;;;3.57;;
18286;SDS011;9269;50.838;12.094;2023-03-13T05:14:03;10.13;;;3.13;;
18286;SDS011;9269;50.838;12.094;2023-03-13T05:16:33;7.57;;;3.10;;
18286;SDS011;9269;50.838;12.094;2023-03-13T05:19:01;7.27;;;3.37;;
18286;SDS011;9269;50.838;12.094;2023-03-13T05:21:31;6.97;;;2.83;;
18286;SDS011;9269;50.838;12.094;2023-03-13T05:24:00;9.53;;;3.50;;
18286;SDS011;9269;50.838;12.094;2023-03-13T05:26:28;11.63;;;3.77;;
18286;SDS011;9269;50.838;12.094;2023-03-13T05:28:56;9.27;;;2.77;;
18286;SDS011;9269;50.838;12.094;2023-03-13T05:31:26;9.60;;;2.90;;
18286;SDS011;9269;50.838;12.094;2023-03-13T05:33:57;9.57;;;2.97;;
18286;SDS011;9269;50.838;12.094;2023-03-13T05:36:26;10.83;;;3.53;;
18286;SDS011;9269;50.838;12.094;2023-03-13T05:38:55;10.33;;;3.43;;
18286;SDS011;9269;50.838;12.094;2023-03-13T05:41:23;10.20;;;3.60;;
18286;SDS011;9269;50.838;12.094;2023-03-13T05:43:52;11.93;;;2.87;;
18286;SDS011;9269;50.838;12.094;2023-03-13T05:46:21;5.10;;;2.63;;
18286;SDS011;9269;50.838;12.094;2023-03-13T05:48:49;6.37;;;2.67;;
18286;SDS011;9269;50.838;12.094;2023-03-13T05:51:19;8.63;;;2.60;;
18286;SDS011;9269;50.838;12.094;2023-03-13T05:53:49;9.53;;;3.27;;
18286;SDS011;9269;50.838;12.094;2023-03-13T05:56:18;8.90;;;2.60;;
18286;SDS011;9269;50.838;12.094;2023-03-13T05:58:46;7.50;;;3.17;;
18286;SDS011;9269;50.838;12.094;2023-03-13T06:01:15;5.80;;;2.27;;
18286;SDS011;9269;50.838;12.094;2023-03-13T06:03:44;7.60;;;2.60;;
18286;SDS011;9269;50.838;12.094;2023-03-13T06:06:12;9.07;;;2.87;;
18286;SDS011;9269;50.838;12.094;2023-03-13T06:08:42;8.17;;;3.37;;
18286;SDS011;9269;50.838;12.094;2023-03-13T06:11:10;7.37;;;2.67;;
18286;SDS011;9269;50.838;12.094;2023-03-13T06:13:39;8.63;;;2.50;;
18286;SDS011;9269;50.838;12.094;2023-03-13T06:16:08;7.93;;;2.63;;
18286;SDS011;9269;50.838;12.094;2023-03-13T06:18:36;5.10;;;2.60;;
18286;SDS011;9269;50.838;12.094;2023-03-13T06:21:05;8.30;;;2.53;;
18286;SDS011;9269;50.838;12.094;2023-03-13T06:23:34;8.00;;;3.23;;
18286;SDS011;9269;50.838;12.094;2023-03-13T06:26:04;8.43;;;3.17;;
18286;SDS011;9269;50.838;12.094;2023-03-13T06:28:34;9.30;;;2.90;;
18286;SDS011;9269;50.838;12.094;2023-03-13T06:31:03;6.03;;;2.03;;
18286;SDS011;9269;50.838;12.094;2023-03-13T06:33:33;4.97;;;2.40;;
18286;SDS011;9269;50.838;12.094;2023-03-13T06:36:02;7.30;;;3.00;;
18286;SDS011;9269;50.838;12.094;2023-03-13T06:38:31;5.63;;;2.70;;
18286;SDS011;9269;50.838;12.094;2023-03-13T06:41:00;4.67;;;2.70;;
18286;SDS011;9269;50.838;12.094;2023-03-13T06:43:31;7.23;;;2.60;;
18286;SDS011;9269;50.838;12.094;2023-03-13T06:46:02;5.83;;;1.97;;
18286;SDS011;9269;50.838;12.094;2023-03-13T06:48:32;5.00;;;2.10;;
18286;SDS011;9269;50.838;12.094;2023-03-13T06:51:01;3.67;;;2.10;;
18286;SDS011;9269;50.838;12.094;2023-03-13T06:53:29;5.17;;;2.17;;
18286;SDS011;9269;50.838;12.094;2023-03-13T06:55:59;5.20;;;2.20;;
18286;SDS011;9269;50.838;12.094;2023-03-13T06:58:28;4.67;;;1.80;;
18286;SDS011;9269;50.838;12.094;2023-03-13T07:00:59;7.77;;;3.03;;
18286;SDS011;9269;50.838;12.094;2023-03-13T07:03:32;5.23;;;2.30;;
18286;SDS011;9269;50.838;12.094;2023-03-13T07:06:01;3.97;;;2.20;;
18286;SDS011;9269;50.838;12.094;2023-03-13T07:08:30;7.50;;;2.30;;
18286;SDS011;9269;50.838;12.094;2023-03-13T07:11:00;5.97;;;2.30;;
18286;SDS011;9269;50.838;12.094;2023-03-13T07:13:30;3.50;;;1.80;;
18286;SDS011;9269;50.838;12.094;2023-03-13T07:15:59;5.07;;;1.87;;
18286;SDS011;9269;50.838;12.094;2023-03-13T07:18:30;4.17;;;1.93;;
18286;SDS011;9269;50.838;12.094;2023-03-13T07:21:00;4.63;;;2.03;;
18286;SDS011;9269;50.838;12.094;2023-03-13T07:23:32;6.80;;;2.27;;
18286;SDS011;9269;50.838;12.094;2023-03-13T07:26:02;3.73;;;1.90;;
18286;SDS011;9269;50.838;12.094;2023-03-13T07:28:33;2.80;;;1.73;;
18286;SDS011;9269;50.838;12.094;2023-03-13T07:31:04;4.73;;;1.80;;
18286;SDS011;9269;50.838;12.094;2023-03-13T07:33:34;3.73;;;1.93;;
18286;SDS011;9269;50.838;12.094;2023-03-13T07:36:03;3.30;;;1.70;;
18286;SDS011;9269;50.838;12.094;2023-03-13T07:38:32;2.60;;;2.00;;
18286;SDS011;9269;50.838;12.094;2023-03-13T07:41:02;5.43;;;1.57;;
18286;SDS011;9269;50.838;12.094;2023-03-13T07:43:33;3.97;;;1.70;;
18286;SDS011;9269;50.838;12.094;2023-03-13T07:46:02;2.80;;;1.77;;
18286;SDS011;9269;50.838;12.094;2023-03-13T07:48:33;2.13;;;1.50;;
18286;SDS011;9269;50.838;12.094;2023-03-13T07:51:03;2.60;;;1.37;;
18286;SDS011;9269;50.838;12.094;2023-03-13T07:53:33;2.07;;;1.47;;
18286;SDS011;9269;50.838;12.094;2023-03-13T07:56:02;2.90;;;1.30;;
18286;SDS011;9269;50.838;12.094;2023-03-13T07:58:34;4.00;;;1.40;;
18286;SDS011;9269;50.838;12.094;2023-03-13T08:01:08;1.47;;;1.20;;
18286;SDS011;9269;50.838;12.094;2023-03-13T08:03:38;4.33;;;1.80;;
18286;SDS011;9269;50.838;12.094;2023-03-13T08:06:10;3.17;;;1.63;;
18286;SDS011;9269;50.838;12.094;2023-03-13T08:08:40;1.63;;;1.17;;
18286;SDS011;9269;50.838;12.094;2023-03-13T08:11:10;1.33;;;1.23;;
18286;SDS011;9269;50.838;12.094;2023-03-13T08:13:42;2.80;;;1.63;;
18286;SDS011;9269;50.838;12.094;2023-03-13T08:16:12;3.03;;;1.30;;
18286;SDS011;9269;50.838;12.094;2023-03-13T08:18:43;4.03;;;1.57;;
18286;SDS011;9269;50.838;12.094;2023-03-13T08:21:14;3.37;;;1.57;;
18286;SDS011;9269;50.838;12.094;2023-03-13T08:23:44;3.60;;;2.23;;
18286;SDS011;9269;50.838;12.094;2023-03-13T08:26:12;2.57;;;1.53;;
18286;SDS011;9269;50.838;12.094;2023-03-13T08:28:44;4.10;;;1.80;;
18286;SDS011;9269;50.838;12.094;2023-03-13T08:31:16;2.67;;;1.40;;
18286;SDS011;9269;50.838;12.094;2023-03-13T08:33:46;6.73;;;5.17;;
18286;SDS011;9269;50.838;12.094;2023-03-13T08:36:18;4.93;;;3.87;;
18286;SDS011;9269;50.838;12.094;2023-03-13T08:38:51;4.93;;;3.37;;
18286;SDS011;9269;50.838;12.094;2023-03-13T08:41:21;3.60;;;2.90;;
18286;SDS011;9269;50.838;12.094;2023-03-13T08:43:52;5.13;;;4.63;;
18286;SDS011;9269;50.838;12.094;2023-03-13T08:46:22;4.40;;;3.50;;
18286;SDS011;9269;50.838;12.094;2023-03-13T08:48:51;7.43;;;5.50;;
18286;SDS011;9269;50.838;12.094;2023-03-13T08:51:21;5.17;;;4.67;;
18286;SDS011;9269;50.838;12.094;2023-03-13T08:53:52;4.20;;;3.80;;
18286;SDS011;9269;50.838;12.094;2023-03-13T08:56:22;6.77;;;6.23;;
18286;SDS011;9269;50.838;12.094;2023-03-13T08:58:54;4.97;;;4.47;;
18286;SDS011;9269;50.838;12.094;2023-03-13T09:01:25;4.83;;;4.17;;
18286;SDS011;9269;50.838;12.094;2023-03-13T09:03:55;13.33;;;12.23;;
18286;SDS011;9269;50.838;12.094;2023-03-13T09:06:29;9.83;;;8.93;;
18286;SDS011;9269;50.838;12.094;2023-03-13T09:08:57;7.67;;;6.43;;
18286;SDS011;9269;50.838;12.094;2023-03-13T09:11:26;3.17;;;2.87;;
18286;SDS011;9269;50.838;12.094;2023-03-13T09:13:58;2.63;;;2.20;;
18286;SDS011;9269;50.838;12.094;2023-03-13T09:16:27;2.47;;;2.20;;
18286;SDS011;9269;50.838;12.094;2023-03-13T09:18:56;2.33;;;2.03;;
18286;SDS011;9269;50.838;12.094;2023-03-13T09:21:27;3.00;;;1.87;;
18286;SDS011;9269;50.838;12.094;2023-03-13T09:23:56;2.43;;;1.70;;
18286;SDS011;9269;50.838;12.094;2023-03-13T09:26:26;3.50;;;2.60;;
18286;SDS011;9269;50.838;12.094;2023-03-13T09:28:55;3.90;;;2.00;;
18286;SDS011;9269;50.838;12.094;2023-03-13T09:31:26;3.53;;;1.70;;
18286;SDS011;9269;50.838;12.094;2023-03-13T09:33:57;3.47;;;1.40;;
18286;SDS011;9269;50.838;12.094;2023-03-13T09:36:26;3.03;;;1.70;;
18286;SDS011;9269;50.838;12.094;2023-03-13T09:38:55;2.70;;;2.50;;
18286;SDS011;9269;50.838;12.094;2023-03-13T09:41:26;2.50;;;2.30;;
18286;SDS011;9269;50.838;12.094;2023-03-13T09:44:02;4.30;;;2.50;;
18286;SDS011;9269;50.838;12.094;2023-03-13T09:46:38;1.80;;;1.70;;
18286;SDS011;9269;50.838;12.094;2023-03-13T09:49:13;1.33;;;1.20;;
18286;SDS011;9269;50.838;12.094;2023-03-13T09:51:53;4.00;;;2.63;;
18286;SDS011;9269;50.838;12.094;2023-03-13T09:54:31;2.37;;;1.43;;
18286;SDS011;9269;50.838;12.094;2023-03-13T09:57:06;1.23;;;1.20;;
18286;SDS011;9269;50.838;12.094;2023-03-13T09:59:44;1.70;;;1.20;;
18286;SDS011;9269;50.838;12.094;2023-03-13T10:02:21;1.50;;;1.00;;
18286;SDS011;9269;50.838;12.094;2023-03-13T10:04:58;1.10;;;1.00;;
18286;SDS011;9269;50.838;12.094;2023-03-13T10:07:32;0.90;;;0.90;;
18286;SDS011;9269;50.838;12.094;2023-03-13T10:10:00;0.70;;;0.70;;
18286;SDS011;9269;50.838;12.094;2023-03-13T10:12:35;0.60;;;0.60;;
18286;SDS011;9269;50.838;12.094;2023-03-13T10:18:11;1.73;;;1.37;;
18286;SDS011;9269;50.838;12.094;2023-03-13T10:20:45;0.67;;;0.67;;
18286;SDS011;9269;50.838;12.094;2023-03-13T10:23:17;1.20;;;1.03;;
18286;SDS011;9269;50.838;12.094;2023-03-13T10:25:48;1.30;;;1.20;;
18286;SDS011;9269;50.838;12.094;2023-03-13T10:28:17;1.07;;;1.00;;
18286;SDS011;9269;50.838;12.094;2023-03-13T10:30:49;0.80;;;0.70;;
18286;SDS011;9269;50.838;12.094;2023-03-13T10:33:24;1.70;;;1.60;;
18286;SDS011;9269;50.838;12.094;2023-03-13T10:36:05;1.73;;;1.50;;
18286;SDS011;9269;50.838;12.094;2023-03-13T10:38:44;2.00;;;1.53;;
18286;SDS011;9269;50.838;12.094;2023-03-13T10:41:18;2.20;;;1.97;;
18286;SDS011;9269;50.838;12.094;2023-03-13T10:43:52;2.00;;;1.80;;
18286;SDS011;9269;50.838;12.094;2023-03-13T10:46:24;2.13;;;1.93;;
18286;SDS011;9269;50.838;12.094;2023-03-13T10:48:55;3.10;;;2.80;;
18286;SDS011;9269;50.838;12.094;2023-03-13T10:51:29;2.23;;;2.03;;
18286;SDS011;9269;50.838;12.094;2023-03-13T10:54:12;2.67;;;2.27;;
18286;SDS011;9269;50.838;12.094;2023-03-13T10:56:43;1.50;;;1.40;;
18286;SDS011;9269;50.838;12.094;2023-03-13T10:59:18;2.30;;;2.10;;
18286;SDS011;9269;50.838;12.094;2023-03-13T11:01:51;2.67;;;1.67;;
18286;SDS011;9269;50.838;12.094;2023-03-13T11:04:27;7.77;;;5.87;;
18286;SDS011;9269;50.838;12.094;2023-03-13T11:06:58;13.03;;;10.17;;
18286;SDS011;9269;50.838;12.094;2023-03-13T11:09:29;58.17;;;46.77;;
18286;SDS011;9269;50.838;12.094;2023-03-13T11:12:03;24.07;;;20.73;;
18286;SDS011;9269;50.838;12.094;2023-03-13T11:14:33;15.23;;;13.83;;
18286;SDS011;9269;50.838;12.094;2023-03-13T11:17:07;20.10;;;18.30;;
18286;SDS011;9269;50.838;12.094;2023-03-13T11:19:53;9.47;;;8.67;;
18286;SDS011;9269;50.838;12.094;2023-03-13T11:22:38;3.37;;;3.17;;
18286;SDS011;9269;50.838;12.094;2023-03-13T11:25:19;1.50;;;1.40;;
18286;SDS011;9269;50.838;12.094;2023-03-13T11:27:58;1.07;;;1.03;;
18286;SDS011;9269;50.838;12.094;2023-03-13T11:30:51;1.87;;;1.30;;
18286;SDS011;9269;50.838;12.094;2023-03-13T11:33:32;1.10;;;1.10;;
18286;SDS011;9269;50.838;12.094;2023-03-13T11:36:13;1.83;;;1.73;;
18286;SDS011;9269;50.838;12.094;2023-03-13T11:38:47;2.57;;;2.03;;
18286;SDS011;9269;50.838;12.094;2023-03-13T11:44:28;1.43;;;1.33;;
18286;SDS011;9269;50.838;12.094;2023-03-13T11:47:01;2.40;;;1.43;;
18286;SDS011;9269;50.838;12.094;2023-03-13T11:52:37;2.70;;;2.47;;
18286;SDS011;9269;50.838;12.094;2023-03-13T11:55:25;2.20;;;2.00;;
18286;SDS011;9269;50.838;12.094;2023-03-13T11:58:05;2.27;;;2.07;;
18286;SDS011;9269;50.838;12.094;2023-03-13T12:00:45;1.80;;;1.67;;
18286;SDS011;9269;50.838;12.094;2023-03-13T12:03:18;3.20;;;2.37;;
18286;SDS011;9269;50.838;12.094;2023-03-13T12:05:52;2.93;;;2.73;;
18286;SDS011;9269;50.838;12.094;2023-03-13T12:08:23;2.50;;;2.10;;
18286;SDS011;9269;50.838;12.094;2023-03-13T12:10:58;2.37;;;2.17;;
18286;SDS011;9269;50.838;12.094;2023-03-13T12:13:33;4.90;;;2.83;;
18286;SDS011;9269;50.838;12.094;2023-03-13T12:16:08;2.27;;;1.93;;
18286;SDS011;9269;50.838;12.094;2023-03-13T12:18:40;3.20;;;2.20;;
18286;SDS011;9269;50.838;12.094;2023-03-13T12:21:14;1.90;;;1.70;;
18286;SDS011;9269;50.838;12.094;2023-03-13T12:23:49;2.20;;;1.70;;
18286;SDS011;9269;50.838;12.094;2023-03-13T12:26:25;2.67;;;2.43;;
18286;SDS011;9269;50.838;12.094;2023-03-13T12:29:05;4.10;;;3.17;;
18286;SDS011;9269;50.838;12.094;2023-03-13T12:31:41;3.33;;;2.53;;
18286;SDS011;9269;50.838;12.094;2023-03-13T12:34:16;3.13;;;2.00;;
18286;SDS011;9269;50.838;12.094;2023-03-13T12:36:52;3.40;;;2.67;;
18286;SDS011;9269;50.838;12.094;2023-03-13T12:39:28;1.80;;;1.70;;
18286;SDS011;9269;50.838;12.094;2023-03-13T12:42:08;2.93;;;1.90;;
18286;SDS011;9269;50.838;12.094;2023-03-13T12:44:44;2.63;;;1.70;;
18286;SDS011;9269;50.838;12.094;2023-03-13T12:47:15;2.07;;;1.90;;
18286;SDS011;9269;50.838;12.094;2023-03-13T12:50:05;2.30;;;1.77;;
18286;SDS011;9269;50.838;12.094;2023-03-13T12:53:10;3.17;;;2.23;;
18286;SDS011;9269;50.838;12.094;2023-03-13T12:55:59;2.57;;;1.83;;
18286;SDS011;9269;50.838;12.094;2023-03-13T12:58:43;2.60;;;1.83;;
18286;SDS011;9269;50.838;12.094;2023-03-13T13:01:26;2.60;;;1.87;;
18286;SDS011;9269;50.838;12.094;2023-03-13T13:03:59;1.93;;;1.83;;
18286;SDS011;9269;50.838;12.094;2023-03-13T13:09:24;1.90;;;1.70;;
18286;SDS011;9269;50.838;12.094;2023-03-13T13:11:55;2.13;;;1.57;;
18286;SDS011;9269;50.838;12.094;2023-03-13T13:17:28;2.27;;;1.60;;
18286;SDS011;9269;50.838;12.094;2023-03-13T13:32:38;3.37;;;2.67;;
18286;SDS011;9269;50.838;12.094;2023-03-13T13:35:27;8.70;;;5.70;;
18286;SDS011;9269;50.838;12.094;2023-03-13T13:46:46;5.37;;;4.50;;
18286;SDS011;9269;50.838;12.094;2023-03-13T13:49:17;6.33;;;4.57;;
18286;SDS011;9269;50.838;12.094;2023-03-13T13:58:01;3.37;;;2.40;;
18286;SDS011;9269;50.838;12.094;2023-03-13T14:00:36;2.40;;;2.10;;
18286;SDS011;9269;50.838;12.094;2023-03-13T14:03:18;2.30;;;2.10;;
18286;SDS011;9269;50.838;12.094;2023-03-13T14:05:52;2.60;;;2.17;;
18286;SDS011;9269;50.838;12.094;2023-03-13T14:08:24;2.73;;;1.80;;
18286;SDS011;9269;50.838;12.094;2023-03-13T14:11:03;2.33;;;2.17;;
18286;SDS011;9269;50.838;12.094;2023-03-13T14:13:44;3.30;;;2.53;;
18286;SDS011;9269;50.838;12.094;2023-03-13T14:16:32;2.87;;;2.30;;
18286;SDS011;9269;50.838;12.094;2023-03-13T14:19:01;2.57;;;2.23;;
18286;SDS011;9269;50.838;12.094;2023-03-13T14:21:31;2.80;;;2.43;;
18286;SDS011;9269;50.838;12.094;2023-03-13T14:24:00;2.63;;;2.43;;
18286;SDS011;9269;50.838;12.094;2023-03-13T14:26:41;2.47;;;2.13;;
18286;SDS011;9269;50.838;12.094;2023-03-13T14:29:14;4.87;;;2.70;;
18286;SDS011;9269;50.838;12.094;2023-03-13T14:31:49;1.93;;;1.83;;
18286;SDS011;9269;50.838;12.094;2023-03-13T14:34:19;2.57;;;2.20;;
18286;SDS011;9269;50.838;12.094;2023-03-13T14:36:50;2.50;;;2.30;;
18286;SDS011;9269;50.838;12.094;2023-03-13T14:39:36;2.07;;;1.80;;
18286;SDS011;9269;50.838;12.094;2023-03-13T14:42:11;2.80;;;2.20;;
18286;SDS011;9269;50.838;12.094;2023-03-13T14:44:49;1.83;;;1.60;;
18286;SDS011;9269;50.838;12.094;2023-03-13T14:47:21;2.83;;;1.90;;
18286;SDS011;9269;50.838;12.094;2023-03-13T14:49:55;2.60;;;2.30;;
18286;SDS011;9269;50.838;12.094;2023-03-13T14:52:27;2.20;;;2.00;;
18286;SDS011;9269;50.838;12.094;2023-03-13T14:54:58;3.00;;;1.90;;
18286;SDS011;9269;50.838;12.094;2023-03-13T14:57:30;2.57;;;1.80;;
18286;SDS011;9269;50.838;12.094;2023-03-13T15:03:17;4.00;;;2.67;;
18286;SDS011;9269;50.838;12.094;2023-03-13T15:05:48;6.07;;;4.13;;
18286;SDS011;9269;50.838;12.094;2023-03-13T15:08:20;4.67;;;3.80;;
18286;SDS011;9269;50.838;12.094;2023-03-13T15:10:50;5.90;;;4.60;;
18286;SDS011;9269;50.838;12.094;2023-03-13T15:13:22;4.30;;;3.60;;
18286;SDS011;9269;50.838;12.094;2023-03-13T15:15:51;3.73;;;3.33;;
18286;SDS011;9269;50.838;12.094;2023-03-13T15:18:21;3.87;;;3.00;;
18286;SDS011;9269;50.838;12.094;2023-03-13T15:20:57;2.80;;;2.60;;
18286;SDS011;9269;50.838;12.094;2023-03-13T15:23:46;3.40;;;2.53;;
18286;SDS011;9269;50.838;12.094;2023-03-13T15:26:17;2.90;;;2.70;;
18286;SDS011;9269;50.838;12.094;2023-03-13T15:28:46;3.80;;;2.80;;
18286;SDS011;9269;50.838;12.094;2023-03-13T15:31:17;3.13;;;2.80;;
18286;SDS011;9269;50.838;12.094;2023-03-13T15:33:53;4.23;;;2.97;;
18286;SDS011;9269;50.838;12.094;2023-03-13T15:36:24;3.70;;;2.53;;
18286;SDS011;9269;50.838;12.094;2023-03-13T15:38:54;2.93;;;2.50;;
18286;SDS011;9269;50.838;12.094;2023-03-13T15:41:22;5.47;;;4.77;;
18286;SDS011;9269;50.838;12.094;2023-03-13T15:43:53;3.30;;;3.00;;
18286;SDS011;9269;50.838;12.094;2023-03-13T15:46:23;4.93;;;3.13;;
18286;SDS011;9269;50.838;12.094;2023-03-13T15:48:53;3.30;;;3.00;;
18286;SDS011;9269;50.838;12.094;2023-03-13T15:51:22;3.17;;;2.80;;
18286;SDS011;9269;50.838;12.094;2023-03-13T15:53:51;2.97;;;2.67;;